createdAt,value
2019-05-07T00:03:26.392Z,15.90
2019-05-07T00:08:20.363Z,16.60
2019-05-07T00:13:14.374Z,15.70
2019-05-07T00:18:08.329Z,14.97
2019-05-07T00:23:03.080Z,15.77
2019-05-07T00:27:57.284Z,15.47
2019-05-07T00:32:53.071Z,16.40
2019-05-07T00:37:49.143Z,16.27
2019-05-07T00:42:47.758Z,17.17
2019-05-07T00:47:42.623Z,17.17
2019-05-07T00:52:36.797Z,14.90
2019-05-07T00:57:32.360Z,16.97
2019-05-07T01:02:26.657Z,16.53
2019-05-07T01:07:22.708Z,16.40
2019-05-07T01:12:16.472Z,16.53
2019-05-07T01:17:10.458Z,16.57
2019-05-07T01:22:04.513Z,16.87
2019-05-07T01:26:58.482Z,16.07
2019-05-07T01:32:00.385Z,15.87
2019-05-07T01:36:54.375Z,17.00
2019-05-07T01:41:48.343Z,16.83
2019-05-07T01:46:42.341Z,17.87
2019-05-07T01:51:36.289Z,16.90
2019-05-07T01:56:30.253Z,18.47
2019-05-07T02:01:24.407Z,17.23
2019-05-07T02:06:26.227Z,18.00
2019-05-07T02:11:34.797Z,18.53
2019-05-07T02:16:28.759Z,17.10
2019-05-07T02:21:22.722Z,19.37
2019-05-07T02:26:16.780Z,18.60
2019-05-07T02:31:14.663Z,18.20
2019-05-07T02:36:06.604Z,18.53
2019-05-07T02:41:03.011Z,18.70
2019-05-07T02:46:17.504Z,18.00
2019-05-07T02:50:56.866Z,18.53
2019-05-07T02:55:53.010Z,18.70
2019-05-07T03:00:47.294Z,19.20
2019-05-07T03:05:43.095Z,19.00
2019-05-07T03:10:37.210Z,19.10
2019-05-07T03:15:33.140Z,19.50
2019-05-07T03:20:35.250Z,18.20
2019-05-07T03:25:34.047Z,19.13
2019-05-07T03:30:35.970Z,19.10
2019-05-07T03:35:36.398Z,20.23
2019-05-07T03:40:27.158Z,19.00
2019-05-07T03:45:26.081Z,20.77
2019-05-07T03:50:23.106Z,18.70
2019-05-07T03:55:16.014Z,19.47
2019-05-07T04:00:13.092Z,20.57
2019-05-07T04:05:07.031Z,19.73
2019-05-07T04:10:04.468Z,20.07
2019-05-07T04:14:58.657Z,20.27
2019-05-07T04:19:53.271Z,20.80
2019-05-07T04:24:49.277Z,20.40
2019-05-07T04:29:43.236Z,20.47
2019-05-07T04:34:53.175Z,20.33
2019-05-07T04:39:53.945Z,21.13
2019-05-07T04:44:48.108Z,20.37
2019-05-07T04:49:43.639Z,20.83
2019-05-07T04:54:37.741Z,19.87
2019-05-07T04:59:32.978Z,20.37
2019-05-07T05:04:34.022Z,20.27
2019-05-07T05:09:23.479Z,22.53
2019-05-07T05:14:17.572Z,21.67
2019-05-07T05:19:12.596Z,22.07
2019-05-07T05:24:17.668Z,21.77
2019-05-07T05:29:12.180Z,21.60
2019-05-07T05:34:06.292Z,22.27
2019-05-07T05:39:02.554Z,21.90
2019-05-07T05:44:02.420Z,21.83
2019-05-07T05:48:56.555Z,21.37
2019-05-07T05:53:52.559Z,21.83
2019-05-07T05:59:02.795Z,21.70
2019-05-07T06:04:02.959Z,22.03
2019-05-07T06:09:12.334Z,21.83
2019-05-07T06:14:08.386Z,21.43
2019-05-07T06:19:04.776Z,21.90
2019-05-07T06:24:02.230Z,21.20
2019-05-07T06:28:56.299Z,20.20
2019-05-07T06:33:52.245Z,20.33
2019-05-07T06:38:53.123Z,20.43
2019-05-07T06:43:54.897Z,17.80
2019-05-07T06:48:48.945Z,18.53
2019-05-07T06:53:42.938Z,16.93
2019-05-07T06:58:55.723Z,15.67
2019-05-07T07:03:54.371Z,15.03
2019-05-07T07:08:59.034Z,15.03
2019-05-07T07:13:53.101Z,15.63
2019-05-07T07:18:51.853Z,15.63
2019-05-07T07:23:43.101Z,15.80
2019-05-07T07:28:37.025Z,16.23
2019-05-07T07:33:32.889Z,15.60
2019-05-07T07:38:33.399Z,16.00
2019-05-07T07:43:27.463Z,16.53
2019-05-07T07:48:24.105Z,17.10
2019-05-07T07:53:17.296Z,15.50
2019-05-07T07:58:13.170Z,14.90
2019-05-07T08:03:09.109Z,15.47
2019-05-07T08:08:03.178Z,14.90
2019-05-07T08:12:57.246Z,14.80
2019-05-07T08:17:52.198Z,13.53
2019-05-07T08:22:46.519Z,13.60
2019-05-07T08:27:41.980Z,12.17
2019-05-07T08:32:43.992Z,13.63
2019-05-07T08:37:38.097Z,13.57
2019-05-07T08:42:32.178Z,11.57
2019-05-07T08:47:33.832Z,11.13
2019-05-07T08:52:27.915Z,13.07
2019-05-07T08:57:22.764Z,12.80
2019-05-07T09:02:17.104Z,12.83
2019-05-07T09:07:13.028Z,14.33
2019-05-07T09:12:07.034Z,14.93
2019-05-07T09:17:02.454Z,16.30
2019-05-07T09:21:56.876Z,17.70
2019-05-07T09:26:55.722Z,18.90
2019-05-07T09:31:52.551Z,18.13
2019-05-07T09:36:48.711Z,18.07
2019-05-07T09:41:42.671Z,19.70
2019-05-07T09:46:36.743Z,18.50
2019-05-07T09:51:32.167Z,18.67
2019-05-07T09:56:26.498Z,17.40
2019-05-07T10:01:20.772Z,17.00
2019-05-07T10:06:14.860Z,17.13
2019-05-07T10:11:12.132Z,17.10
2019-05-07T10:16:07.800Z,16.53
2019-05-07T10:21:02.602Z,15.67
2019-05-07T10:25:56.744Z,16.00
2019-05-07T10:30:52.174Z,16.07
2019-05-07T10:35:46.385Z,15.80
2019-05-07T10:40:40.398Z,15.37
2019-05-07T10:45:39.023Z,15.73
2019-05-07T10:50:39.129Z,17.00
2019-05-07T10:55:32.765Z,16.03
2019-05-07T11:00:27.347Z,16.30
2019-05-07T11:05:22.032Z,16.23
2019-05-07T11:10:16.279Z,16.73
2019-05-07T11:15:12.424Z,15.47
2019-05-07T11:20:07.388Z,16.20
2019-05-07T11:25:03.148Z,16.30
2019-05-07T11:29:57.358Z,16.50
2019-05-07T11:34:52.808Z,16.77
2019-05-07T11:39:47.329Z,15.67
2019-05-07T11:44:42.383Z,15.87
2019-05-07T11:49:53.529Z,16.47
2019-05-07T11:54:47.498Z,15.90
2019-05-07T11:59:41.881Z,15.80
2019-05-07T12:04:35.879Z,16.37
2019-05-07T12:09:29.856Z,15.70
2019-05-07T12:14:30.961Z,15.17
2019-05-07T12:19:19.748Z,14.20
2019-05-07T12:24:16.367Z,13.35
2019-05-07T12:29:11.659Z,13.00
2019-05-07T12:34:07.522Z,13.40
2019-05-07T12:39:02.254Z,14.10
2019-05-07T12:43:57.675Z,13.75
2019-05-07T12:48:52.397Z,14.27
2019-05-07T12:53:52.482Z,14.50
2019-05-07T12:58:46.618Z,12.07
2019-05-07T13:03:42.867Z,11.57
2019-05-07T13:08:36.917Z,11.87
2019-05-07T13:13:32.036Z,11.10
2019-05-07T13:18:26.107Z,11.50
2019-05-07T13:23:22.337Z,10.72
2019-05-07T13:28:15.991Z,9.80
2019-05-07T13:33:12.177Z,9.38
2019-05-07T13:38:07.962Z,9.40
2019-05-07T13:43:11.747Z,9.23
2019-05-07T13:48:13.715Z,9.33
2019-05-07T13:53:07.921Z,9.58
2019-05-07T13:58:02.111Z,9.20
2019-05-07T14:02:56.555Z,10.98
2019-05-07T14:07:50.721Z,15.57
2019-05-07T14:12:44.758Z,8.80
2019-05-07T14:17:39.019Z,9.25
2019-05-07T14:22:33.415Z,9.60
2019-05-07T14:27:27.400Z,8.10
2019-05-07T14:32:38.637Z,8.30
2019-05-07T14:37:34.704Z,8.28
2019-05-07T14:42:32.701Z,8.80
2019-05-07T14:47:26.535Z,8.70
2019-05-07T14:52:30.303Z,9.48
2019-05-07T14:57:16.771Z,8.93
2019-05-07T15:02:12.082Z,9.20
2019-05-07T15:07:06.525Z,8.95
2019-05-07T15:12:02.199Z,9.18
2019-05-07T15:16:58.116Z,9.05
2019-05-07T15:21:54.103Z,9.83
2019-05-07T15:26:50.080Z,9.63
2019-05-07T15:31:55.390Z,10.25
2019-05-07T15:36:49.470Z,9.33
2019-05-07T15:41:43.449Z,10.13
2019-05-07T15:46:37.576Z,10.10
2019-05-07T15:51:32.802Z,10.30
2019-05-07T15:56:26.818Z,10.10
2019-05-07T16:01:22.189Z,9.68
2019-05-07T16:06:16.425Z,8.83
2019-05-07T16:11:12.484Z,8.90
2019-05-07T16:16:06.639Z,8.80
2019-05-07T16:21:02.090Z,8.88
2019-05-07T16:25:56.519Z,9.18
2019-05-07T16:30:52.168Z,8.83
2019-05-07T16:35:46.272Z,9.10
2019-05-07T16:40:40.269Z,8.67
2019-05-07T16:45:34.250Z,8.50
2019-05-07T16:50:32.634Z,10.30
2019-05-07T16:55:36.912Z,9.63
2019-05-07T17:00:35.906Z,9.55
2019-05-07T17:05:31.948Z,9.37
2019-05-07T17:10:25.909Z,9.15
2019-05-07T17:15:22.832Z,8.75
2019-05-07T17:20:18.090Z,8.30
2019-05-07T17:25:14.212Z,8.93
2019-05-07T17:30:08.487Z,9.50
2019-05-07T17:35:03.372Z,8.23
2019-05-07T17:39:57.398Z,8.73
2019-05-07T17:44:51.863Z,8.93
2019-05-07T17:49:45.900Z,8.47
2019-05-07T17:54:42.235Z,8.70
2019-05-07T17:59:35.893Z,8.40
2019-05-07T18:04:32.570Z,9.10
2019-05-07T18:09:27.524Z,9.90
2019-05-07T18:14:22.785Z,8.23
2019-05-07T18:19:17.023Z,8.10
2019-05-07T18:24:14.294Z,7.90
2019-05-07T18:29:07.131Z,7.43
2019-05-07T18:34:02.705Z,7.30
2019-05-07T18:38:56.761Z,6.83
2019-05-07T18:43:54.373Z,6.50
2019-05-07T18:48:46.910Z,6.83
2019-05-07T18:53:42.486Z,7.10
2019-05-07T18:58:36.956Z,7.00
2019-05-07T19:03:32.532Z,6.90
2019-05-07T19:08:26.946Z,7.43
2019-05-07T19:13:22.157Z,7.53
2019-05-07T19:18:16.563Z,7.90
2019-05-07T19:23:10.807Z,7.20
2019-05-07T19:28:06.766Z,7.30
2019-05-07T19:33:00.848Z,7.83
2019-05-07T19:37:54.950Z,7.47
2019-05-07T19:42:49.174Z,7.67
2019-05-07T19:47:43.267Z,7.20
2019-05-07T19:52:37.481Z,7.23
2019-05-07T19:57:33.482Z,7.63
2019-05-07T20:02:29.612Z,7.00
2019-05-07T20:07:23.699Z,7.40
2019-05-07T20:12:17.734Z,6.93
2019-05-07T20:17:12.352Z,6.60
2019-05-07T20:22:06.573Z,7.20
2019-05-07T20:27:02.870Z,7.00
2019-05-07T20:31:56.606Z,6.87
2019-05-07T20:36:51.817Z,6.43
2019-05-07T20:41:45.932Z,7.10
2019-05-07T20:46:41.986Z,6.77
2019-05-07T20:51:35.905Z,7.40
2019-05-07T20:56:49.075Z,6.90
2019-05-07T21:01:43.150Z,6.93
2019-05-07T21:06:37.236Z,6.90
2019-05-07T21:11:32.347Z,6.83
2019-05-07T21:16:26.621Z,7.53
2019-05-07T21:21:21.826Z,6.73
2019-05-07T21:26:15.950Z,7.10
2019-05-07T21:31:11.856Z,7.43
2019-05-07T21:36:05.798Z,7.30
2019-05-07T21:40:59.820Z,7.90
2019-05-07T21:45:53.793Z,6.97
2019-05-07T21:50:47.816Z,6.70
2019-05-07T21:55:44.251Z,6.33
2019-05-07T22:00:56.794Z,6.63
2019-05-07T22:05:51.755Z,6.70
2019-05-07T22:10:46.817Z,6.50
2019-05-07T22:15:42.272Z,6.33
2019-05-07T22:20:36.461Z,6.87
2019-05-07T22:25:32.673Z,6.67
2019-05-07T22:30:28.341Z,6.40
2019-05-07T22:35:24.249Z,6.10
2019-05-07T22:40:18.340Z,6.87
2019-05-07T22:45:12.742Z,6.20
2019-05-07T22:50:06.729Z,6.47
2019-05-07T22:55:00.692Z,6.60
2019-05-07T22:59:54.658Z,6.00
2019-05-07T23:04:48.611Z,6.07
2019-05-07T23:09:44.889Z,6.70
2019-05-07T23:14:38.565Z,6.47
2019-05-07T23:19:32.813Z,5.83
2019-05-07T23:24:27.102Z,5.43
2019-05-07T23:29:22.436Z,5.53
2019-05-07T23:34:16.897Z,5.90
2019-05-07T23:39:12.765Z,5.80
2019-05-07T23:44:12.437Z,6.00
2019-05-07T23:49:06.740Z,5.57
2019-05-07T23:54:02.799Z,5.83
2019-05-07T23:58:56.723Z,5.93
